Time;durP1;ratioP1;P1;durP2;ratioP2;P2;SDS_P1;SDS_P2;PMS_P1;PMS_P2;Temp;Humidity;BMP_temperature;BMP_pressure;BME280_temperature;BME280_humidity;BME280_pressure;Samples;Min_cycle;Max_cycle;Signal;HPM_P1;HPM_P2
2021/06/18 05:01:49;;;;;;;5.45;3.10;;;20.20;93.90;;;;;;5276164;23;20144;-79
2021/06/18 05:04:16;;;;;;;5.15;3.20;;;20.30;93.90;;;;;;4862378;29;20050;-79
2021/06/18 05:06:43;;;;;;;5.53;3.08;;;20.40;94.00;;;;;;4862438;29;20132;-78
2021/06/18 05:09:10;;;;;;;4.45;2.92;;;20.50;93.90;;;;;;4864650;29;20129;-79
2021/06/18 05:11:37;;;;;;;5.80;2.90;;;20.60;94.00;;;;;;4862736;29;20107;-79
2021/06/18 05:14:04;;;;;;;4.22;2.63;;;20.70;93.90;;;;;;4862338;29;20128;-79
2021/06/18 05:16:31;;;;;;;6.25;3.40;;;20.80;93.80;;;;;;4862217;29;20133;-79
2021/06/18 05:19:00;;;;;;;4.82;3.13;;;20.90;93.70;;;;;;4862298;29;20081;-79
2021/06/18 05:21:27;;;;;;;5.38;3.60;;;21.00;93.70;;;;;;4862258;29;20100;-79
2021/06/18 05:23:54;;;;;;;5.55;3.83;;;21.10;93.70;;;;;;4861993;29;20583;-79
2021/06/18 05:26:21;;;;;;;4.43;3.25;;;21.20;93.70;;;;;;4862078;29;20132;-79
2021/06/18 05:28:48;;;;;;;5.60;3.75;;;21.20;93.70;;;;;;4862014;29;20049;-80
2021/06/18 05:31:15;;;;;;;5.28;3.70;;;21.30;93.90;;;;;;4862007;29;20569;-79
2021/06/18 05:33:42;;;;;;;6.45;4.00;;;21.40;94.10;;;;;;4862013;29;20140;-78
2021/06/18 05:36:10;;;;;;;5.25;3.60;;;21.40;94.20;;;;;;4861981;29;20199;-79
2021/06/18 05:38:37;;;;;;;4.82;3.50;;;21.50;94.30;;;;;;4861797;29;20151;-78
2021/06/18 05:41:04;;;;;;;6.10;3.70;;;21.60;94.30;;;;;;4861640;29;20136;-79
2021/06/18 05:43:31;;;;;;;4.97;3.50;;;21.70;94.40;;;;;;4861529;29;20140;-78
2021/06/18 05:45:58;;;;;;;6.55;3.45;;;21.80;94.30;;;;;;4861778;29;20140;-79
2021/06/18 05:48:25;;;;;;;4.22;2.85;;;21.90;94.10;;;;;;4861654;29;20145;-81
2021/06/18 05:50:52;;;;;;;4.45;2.97;;;22.00;94.00;;;;;;4861755;29;20509;-79
2021/06/18 05:53:21;;;;;;;4.50;3.08;;;22.10;94.00;;;;;;4861457;29;20144;-79
2021/06/18 05:55:48;;;;;;;5.65;3.60;;;22.20;93.90;;;;;;4861212;29;20080;-80
2021/06/18 05:58:16;;;;;;;4.60;3.40;;;22.30;93.60;;;;;;4861401;29;20136;-79
2021/06/18 06:00:43;;;;;;;5.13;3.40;;;22.30;93.40;;;;;;4936004;23;20140;-79
2021/06/18 06:03:11;;;;;;;5.00;3.33;;;22.40;93.70;;;;;;4880337;29;20140;-77
2021/06/18 06:05:38;;;;;;;5.72;3.20;;;22.50;93.20;;;;;;4880363;29;20053;-79
2021/06/18 06:08:10;;;;;;;6.25;3.17;;;22.50;93.10;;;;;;4880460;29;20099;-79
2021/06/18 06:10:39;;;;;;;4.50;2.65;;;22.60;93.00;;;;;;4879973;29;20155;-80
2021/06/18 06:13:07;;;;;;;4.90;3.22;;;22.70;92.80;;;;;;4880243;29;20096;-78
2021/06/18 06:15:34;;;;;;;5.10;3.63;;;22.80;92.70;;;;;;4880221;29;20135;-79
2021/06/18 06:18:02;;;;;;;5.60;3.60;;;22.90;92.70;;;;;;4880018;29;20561;-78
2021/06/18 06:20:29;;;;;;;6.13;3.58;;;23.00;92.90;;;;;;4880216;29;20128;-76
2021/06/18 06:22:56;;;;;;;5.00;3.35;;;23.00;93.00;;;;;;4880012;29;20135;-78
2021/06/18 06:25:23;;;;;;;4.65;3.20;;;23.10;93.10;;;;;;4879669;29;20136;-79
2021/06/18 06:27:51;;;;;;;6.47;3.60;;;23.10;93.00;;;;;;4882968;29;20061;-77
2021/06/18 06:30:19;;;;;;;4.45;3.05;;;23.20;93.10;;;;;;4880607;29;20534;-78
2021/06/18 06:32:46;;;;;;;4.80;3.00;;;23.30;93.00;;;;;;4879868;29;20135;-77
2021/06/18 06:35:14;;;;;;;4.97;3.17;;;23.40;92.90;;;;;;4879866;29;20135;-78
2021/06/18 06:37:42;;;;;;;4.47;2.90;;;23.40;92.90;;;;;;4879875;29;20128;-79
2021/06/18 06:40:11;;;;;;;4.72;3.10;;;23.50;92.90;;;;;;4879496;29;20056;-80
2021/06/18 06:42:38;;;;;;;5.60;3.20;;;23.60;92.80;;;;;;4880152;29;20132;-80
2021/06/18 06:45:08;;;;;;;4.60;3.10;;;23.70;92.60;;;;;;4879704;29;20415;-77
2021/06/18 06:47:35;;;;;;;4.90;3.03;;;23.70;92.40;;;;;;4880110;29;20144;-78
2021/06/18 06:50:03;;;;;;;4.30;3.00;;;23.80;92.20;;;;;;4879929;29;20590;-76
2021/06/18 06:52:30;;;;;;;5.20;3.15;;;23.80;92.10;;;;;;4879538;29;20136;-79
2021/06/18 06:54:57;;;;;;;4.65;2.90;;;23.90;92.00;;;;;;4878614;29;20137;-78
2021/06/18 06:57:25;;;;;;;4.93;3.10;;;24.00;91.70;;;;;;4879363;29;20136;-78
2021/06/18 06:59:52;;;;;;;5.28;3.70;;;24.00;91.50;;;;;;4879303;29;20152;-77
2021/06/18 07:02:21;;;;;;;5.88;3.42;;;24.10;91.60;;;;;;4879809;29;20049;-78
2021/06/18 07:04:48;;;;;;;5.57;3.45;;;24.20;91.30;;;;;;4879546;29;20525;-79
2021/06/18 07:07:16;;;;;;;5.20;3.30;;;24.20;91.00;;;;;;4880679;29;20446;-79
2021/06/18 07:09:43;;;;;;;9.05;4.05;;;24.30;91.00;;;;;;4882079;29;20442;-78
2021/06/18 07:12:11;;;;;;;4.88;3.40;;;24.30;90.50;;;;;;4883289;29;20414;-79
2021/06/18 07:14:39;;;;;;;4.80;3.20;;;24.40;90.30;;;;;;4883457;29;20135;-79
2021/06/18 07:17:07;;;;;;;5.32;3.67;;;24.40;90.00;;;;;;4883548;29;20144;-78
2021/06/18 07:19:37;;;;;;;5.35;3.28;;;24.50;88.10;;;;;;4883835;29;20145;-79
2021/06/18 07:22:04;;;;;;;7.07;3.20;;;24.50;86.70;;;;;;4886226;29;20057;-76
2021/06/18 07:24:31;;;;;;;4.45;2.92;;;24.60;86.10;;;;;;4883608;29;20059;-79
2021/06/18 07:27:00;;;;;;;4.55;3.30;;;24.60;83.90;;;;;;4883452;29;20076;-77
2021/06/18 07:29:27;;;;;;;6.20;3.25;;;24.60;83.40;;;;;;4883014;29;20566;-77
2021/06/18 07:31:55;;;;;;;4.93;2.80;;;24.70;83.10;;;;;;4882812;29;20057;-77
2021/06/18 07:34:22;;;;;;;5.03;2.67;;;24.70;83.00;;;;;;4883167;29;20057;-76
2021/06/18 07:36:51;;;;;;;5.57;3.55;;;24.80;82.90;;;;;;4883039;29;20136;-80
2021/06/18 07:39:18;;;;;;;6.47;3.55;;;24.90;82.60;;;;;;4882634;29;20215;-77
2021/06/18 07:41:48;;;;;;;5.35;3.45;;;24.90;82.10;;;;;;4883243;29;20113;-75
2021/06/18 07:44:15;;;;;;;5.45;3.17;;;24.90;81.90;;;;;;4882889;29;20527;-77
2021/06/18 07:46:42;;;;;;;4.88;2.70;;;25.00;82.10;;;;;;4883066;29;20136;-78
2021/06/18 07:49:09;;;;;;;6.95;3.30;;;25.00;82.10;;;;;;4882886;29;20135;-78
2021/06/18 07:51:38;;;;;;;5.20;3.20;;;25.10;80.90;;;;;;4882827;29;20127;-80
2021/06/18 07:54:07;;;;;;;4.68;3.20;;;25.10;80.60;;;;;;4882304;29;20141;-79
2021/06/18 07:56:40;;;;;;;6.03;3.35;;;25.20;80.50;;;;;;4882580;29;20108;-79
2021/06/18 07:59:07;;;;;;;5.22;3.25;;;25.20;79.80;;;;;;4882441;29;20505;-80
2021/06/18 08:01:34;;;;;;;5.28;2.90;;;25.20;79.30;;;;;;4882419;29;20095;-75
2021/06/18 08:04:02;;;;;;;3.95;2.88;;;25.30;79.00;;;;;;4881943;29;20063;-77
2021/06/18 08:06:29;;;;;;;4.80;2.70;;;25.30;79.00;;;;;;4882376;29;20135;-79
2021/06/18 08:08:56;;;;;;;4.05;2.45;;;25.40;78.80;;;;;;4884344;29;20113;-76
2021/06/18 08:11:24;;;;;;;5.18;2.92;;;25.50;78.70;;;;;;4882288;29;20123;-77
2021/06/18 08:13:51;;;;;;;4.88;2.88;;;25.50;78.60;;;;;;4882306;29;20586;-78
2021/06/18 08:16:18;;;;;;;4.93;3.00;;;25.50;78.60;;;;;;4882528;29;20080;-77
2021/06/18 08:18:45;;;;;;;4.70;3.00;;;25.60;78.80;;;;;;4882463;29;20136;-78
2021/06/18 08:21:12;;;;;;;5.20;3.25;;;25.70;79.00;;;;;;4882587;29;20477;-77
2021/06/18 08:23:40;;;;;;;3.90;2.80;;;25.80;78.70;;;;;;4882243;29;20084;-77
2021/06/18 08:26:07;;;;;;;4.22;2.60;;;25.80;78.40;;;;;;4881886;29;20405;-76
2021/06/18 08:28:36;;;;;;;5.65;3.10;;;25.80;78.20;;;;;;4882394;29;20451;-77
2021/06/18 08:31:04;;;;;;;4.35;3.00;;;25.90;78.30;;;;;;4882035;29;20140;-77
2021/06/18 08:33:32;;;;;;;4.90;2.90;;;26.00;78.70;;;;;;4882054;29;20046;-77
2021/06/18 08:36:00;;;;;;;4.50;2.90;;;26.10;78.10;;;;;;4881855;29;20049;-77
2021/06/18 08:38:27;;;;;;;4.60;2.90;;;26.10;77.50;;;;;;4881668;29;20487;-77
2021/06/18 08:40:54;;;;;;;5.50;3.15;;;26.20;77.40;;;;;;4881870;29;20129;-77
2021/06/18 08:43:22;;;;;;;4.82;3.28;;;26.30;77.50;;;;;;4882283;29;20096;-76
2021/06/18 08:45:50;;;;;;;5.78;3.60;;;26.30;76.90;;;;;;4881949;29;20136;-77
2021/06/18 08:48:17;;;;;;;6.75;3.97;;;26.30;76.50;;;;;;4881884;29;20160;-77
2021/06/18 08:50:45;;;;;;;5.80;3.47;;;26.30;75.80;;;;;;4881658;29;20140;-77
2021/06/18 08:53:14;;;;;;;5.05;3.40;;;26.40;75.50;;;;;;4881682;29;20053;-77
2021/06/18 08:55:41;;;;;;;4.20;2.95;;;26.40;75.60;;;;;;4881231;29;20087;-77
2021/06/18 08:58:08;;;;;;;4.65;3.17;;;26.40;75.80;;;;;;4881593;29;20081;-75
2021/06/18 09:00:35;;;;;;;5.93;3.38;;;26.50;75.70;;;;;;4881393;29;20159;-78
2021/06/18 09:03:35;;;;;;;6.35;3.78;;;26.60;75.90;;;;;;4882200;29;20474;-76
2021/06/18 09:06:02;;;;;;;4.60;3.10;;;26.60;75.80;;;;;;4881674;29;20101;-77
2021/06/18 09:08:29;;;;;;;5.35;3.47;;;26.60;75.90;;;;;;4882214;29;20137;-76
2021/06/18 09:10:56;;;;;;;5.90;3.28;;;26.60;76.20;;;;;;4881413;29;20092;-80
2021/06/18 09:13:30;;;;;;;5.60;3.35;;;26.60;76.10;;;;;;4880977;29;20105;-77
2021/06/18 09:15:59;;;;;;;6.63;3.38;;;26.70;76.40;;;;;;4881261;29;20136;-77
2021/06/18 09:18:33;;;;;;;5.00;3.30;;;26.70;76.20;;;;;;4881146;29;20462;-77
2021/06/18 09:21:23;;;;;;;4.82;2.80;;;26.80;76.10;;;;;;4881293;29;20456;-78
2021/06/18 09:23:53;;;;;;;4.60;2.97;;;26.90;75.90;;;;;;4881444;29;20097;-78
2021/06/18 09:26:39;;;;;;;6.25;3.50;;;26.90;75.90;;;;;;4880938;29;20053;-77
2021/06/18 09:29:12;;;;;;;5.45;3.30;;;27.00;76.20;;;;;;4881272;29;20093;-77
2021/06/18 09:31:47;;;;;;;4.70;3.20;;;27.10;75.80;;;;;;4881500;29;20080;-77
2021/06/18 09:34:30;;;;;;;5.13;3.10;;;27.20;75.40;;;;;;4881119;29;20152;-78
2021/06/18 09:37:20;;;;;;;5.90;3.75;;;27.20;75.30;;;;;;4880593;29;20048;-77
2021/06/18 09:40:10;;;;;;;6.25;3.58;;;27.30;75.30;;;;;;4880686;29;20080;-77
2021/06/18 09:42:49;;;;;;;5.40;3.20;;;27.30;74.40;;;;;;4880271;29;20460;-75
2021/06/18 09:45:19;;;;;;;5.60;3.63;;;27.40;73.90;;;;;;4881274;29;20072;-77
2021/06/18 09:47:47;;;;;;;7.00;3.88;;;27.50;73.80;;;;;;4881080;29;20127;-79
2021/06/18 09:50:28;;;;;;;4.90;3.42;;;27.50;73.20;;;;;;4880905;29;20460;-77
2021/06/18 09:53:15;;;;;;;5.60;2.90;;;27.50;73.10;;;;;;4884171;29;20053;-77
2021/06/18 09:55:45;;;;;;;4.70;3.10;;;27.60;72.80;;;;;;4880729;29;20483;-76
2021/06/18 09:58:14;;;;;;;5.47;3.00;;;27.70;71.50;;;;;;4880588;29;20053;-76
2021/06/18 10:00:41;;;;;;;4.30;3.03;;;27.70;70.80;;;;;;4880603;29;20140;-76
2021/06/18 10:03:11;;;;;;;6.15;3.35;;;27.80;70.60;;;;;;4879929;29;20481;-76
2021/06/18 10:05:42;;;;;;;6.40;4.15;;;27.80;69.60;;;;;;4880900;29;20060;-79
2021/06/18 10:08:09;;;;;;;5.90;3.50;;;27.90;68.80;;;;;;4880700;29;20056;-75
2021/06/18 10:10:38;;;;;;;4.68;3.60;;;27.90;69.00;;;;;;4880374;29;20491;-76
2021/06/18 10:13:05;;;;;;;6.88;3.70;;;28.00;69.40;;;;;;4880313;29;20479;-75
2021/06/18 10:15:38;;;;;;;4.85;3.50;;;28.10;69.60;;;;;;4880435;29;20085;-76
2021/06/18 10:18:11;;;;;;;5.32;3.50;;;28.10;69.00;;;;;;4879838;29;20056;-78
2021/06/18 10:20:40;;;;;;;4.90;3.37;;;28.10;68.00;;;;;;4879906;29;20120;-76
2021/06/18 10:23:10;;;;;;;4.75;2.97;;;28.20;66.80;;;;;;4880706;29;20060;-79
2021/06/18 10:25:43;;;;;;;4.80;3.38;;;28.20;66.00;;;;;;4880501;29;20052;-78
2021/06/18 10:28:13;;;;;;;5.40;3.10;;;28.30;66.20;;;;;;4880483;29;20136;-75
2021/06/18 10:30:47;;;;;;;4.75;3.00;;;28.40;66.30;;;;;;4880415;29;20144;-79
2021/06/18 10:33:36;;;;;;;5.65;3.17;;;28.40;65.50;;;;;;4880423;29;20136;-75
2021/06/18 10:36:23;;;;;;;5.88;3.05;;;28.40;65.10;;;;;;4880692;29;20080;-76
2021/06/18 10:39:12;;;;;;;6.05;3.15;;;28.50;64.30;;;;;;4880424;29;20092;-76
2021/06/18 10:41:48;;;;;;;4.85;3.00;;;28.60;65.50;;;;;;4879338;29;20153;-78
2021/06/18 10:44:48;;;;;;;6.13;3.00;;;28.70;64.70;;;;;;4879883;29;20178;-77
2021/06/18 10:47:49;;;;;;;4.03;2.50;;;28.80;64.20;;;;;;4879727;29;20493;-77
2021/06/18 10:50:50;;;;;;;4.50;2.75;;;28.80;62.70;;;;;;4879394;29;20140;-78
2021/06/18 10:53:23;;;;;;;4.18;2.53;;;28.90;62.80;;;;;;4879678;29;20053;-75
2021/06/18 10:55:54;;;;;;;5.13;2.80;;;28.90;63.10;;;;;;4879748;29;20132;-75
2021/06/18 10:58:21;;;;;;;4.32;2.90;;;29.10;63.20;;;;;;4880198;29;20060;-77
2021/06/18 11:00:48;;;;;;;3.65;2.50;;;29.10;62.40;;;;;;4879932;29;20149;-76
2021/06/18 11:03:17;;;;;;;4.03;2.70;;;29.20;62.50;;;;;;4879744;29;20080;-74
2021/06/18 11:05:47;;;;;;;4.85;2.95;;;29.30;62.20;;;;;;4879977;29;20113;-77
2021/06/18 11:08:31;;;;;;;4.22;2.88;;;29.30;61.00;;;;;;4879653;29;20080;-79
2021/06/18 11:10:59;;;;;;;4.35;2.67;;;29.40;60.30;;;;;;4879376;29;20075;-75
2021/06/18 11:13:27;;;;;;;4.32;2.85;;;29.50;59.90;;;;;;4879810;29;20057;-76
2021/06/18 11:15:55;;;;;;;4.47;3.10;;;29.60;59.20;;;;;;4879591;29;20104;-77
2021/06/18 11:18:36;;;;;;;5.35;3.60;;;29.60;58.50;;;;;;4879588;29;20100;-77
2021/06/18 11:21:08;;;;;;;4.30;3.00;;;29.70;56.90;;;;;;4879537;29;20049;-77
2021/06/18 11:23:40;;;;;;;4.18;2.63;;;29.70;56.30;;;;;;4879409;29;20063;-75
2021/06/18 11:26:13;;;;;;;7.07;4.20;;;29.80;56.30;;;;;;4879095;29;20415;-78
2021/06/18 11:28:50;;;;;;;5.15;3.67;;;29.80;56.90;;;;;;4879045;29;20060;-75
2021/06/18 11:31:38;;;;;;;3.95;2.75;;;29.90;58.00;;;;;;4879187;29;20050;-78
2021/06/18 11:34:06;;;;;;;3.92;2.40;;;30.00;58.70;;;;;;4879698;29;20049;-76
2021/06/18 11:36:43;;;;;;;3.67;2.35;;;30.20;59.00;;;;;;4879473;29;20487;-76
2021/06/18 11:39:22;;;;;;;3.30;2.40;;;30.20;58.20;;;;;;4879368;29;20459;-75
2021/06/18 11:42:10;;;;;;;4.43;2.80;;;30.30;57.00;;;;;;4879633;29;20137;-76
2021/06/18 11:44:39;;;;;;;6.25;3.10;;;30.40;56.10;;;;;;4876563;29;20542;-76
2021/06/18 11:47:07;;;;;;;5.07;3.10;;;30.40;55.60;;;;;;4879582;29;20077;-76
2021/06/18 11:49:36;;;;;;;4.30;2.60;;;30.40;55.00;;;;;;4880184;29;20053;-76
2021/06/18 11:52:13;;;;;;;4.20;2.40;;;30.50;54.80;;;;;;4878790;29;20049;-76
2021/06/18 11:54:44;;;;;;;4.20;2.25;;;30.50;54.60;;;;;;4882443;29;20053;-76
2021/06/18 11:57:23;;;;;;;4.18;2.45;;;30.60;55.20;;;;;;4882753;29;20145;-76
2021/06/18 11:59:59;;;;;;;4.10;2.30;;;30.70;55.40;;;;;;4882781;29;20049;-78
2021/06/18 12:02:31;;;;;;;4.55;2.45;;;30.90;55.30;;;;;;4883467;29;20060;-77
2021/06/18 12:05:13;;;;;;;4.47;2.20;;;30.90;54.00;;;;;;4883072;29;20135;-77
2021/06/18 12:07:41;;;;;;;4.15;2.63;;;31.00;53.40;;;;;;4882693;29;20049;-76
2021/06/18 12:10:23;;;;;;;4.72;2.22;;;31.10;53.20;;;;;;4882467;29;20135;-77
2021/06/18 12:12:51;;;;;;;5.00;2.33;;;31.10;52.60;;;;;;4882773;29;20391;-77
2021/06/18 12:15:24;;;;;;;5.15;2.20;;;31.20;53.50;;;;;;4882034;29;20136;-78
2021/06/18 12:17:53;;;;;;;4.43;2.67;;;31.30;53.90;;;;;;4882647;29;20103;-75
2021/06/18 12:20:34;;;;;;;5.30;3.05;;;31.40;53.90;;;;;;4882766;29;20088;-75
2021/06/18 12:23:02;;;;;;;4.13;2.20;;;31.40;54.10;;;;;;4882385;29;20065;-76
2021/06/18 12:25:31;;;;;;;4.63;2.55;;;31.50;54.00;;;;;;4882161;29;20076;-77
2021/06/18 12:28:00;;;;;;;4.43;2.60;;;31.60;53.80;;;;;;4882346;29;20448;-75
2021/06/18 12:30:31;;;;;;;4.43;2.70;;;31.80;58.90;;;;;;4882349;29;20077;-74
2021/06/18 12:33:02;;;;;;;3.95;2.40;;;31.70;80.70;;;;;;4881943;29;20052;-76
2021/06/18 12:35:51;;;;;;;5.03;2.60;;;32.10;52.80;;;;;;4882160;29;20481;-77
2021/06/18 12:38:18;;;;;;;6.22;2.90;;;32.00;53.20;;;;;;4877961;29;20132;-75
2021/06/18 12:40:49;;;;;;;5.15;2.80;;;32.10;52.70;;;;;;4882335;29;20088;-76
2021/06/18 12:43:17;;;;;;;4.28;2.80;;;32.20;52.60;;;;;;4881925;29;20125;-76
2021/06/18 12:45:48;;;;;;;4.28;2.70;;;32.30;51.40;;;;;;4881895;29;20084;-77
2021/06/18 12:48:18;;;;;;;4.95;2.70;;;32.30;50.90;;;;;;4882586;29;20073;-77
2021/06/18 12:50:49;;;;;;;4.07;2.45;;;32.40;51.20;;;;;;4881386;29;20132;-76
2021/06/18 12:53:18;;;;;;;3.50;2.35;;;32.50;51.00;;;;;;4881702;29;20049;-76
2021/06/18 12:55:50;;;;;;;4.03;2.60;;;32.60;51.40;;;;;;4881822;29;20096;-75
2021/06/18 12:58:20;;;;;;;5.07;3.08;;;32.70;50.10;;;;;;4881276;29;20053;-76
2021/06/18 13:00:54;;;;;;;4.93;3.10;;;32.80;49.90;;;;;;4881508;29;20147;-76
2021/06/18 13:03:33;;;;;;;4.63;2.75;;;32.90;49.80;;;;;;4881780;29;20053;-77
2021/06/18 13:06:03;;;;;;;5.13;2.63;;;33.00;49.40;;;;;;4880933;29;20084;-76
2021/06/18 13:08:30;;;;;;;5.00;2.30;;;33.10;49.30;;;;;;4881570;29;20057;-77
2021/06/18 13:10:59;;;;;;;3.90;2.10;;;33.20;49.40;;;;;;4881115;29;20053;-76
2021/06/18 13:13:31;;;;;;;5.20;2.63;;;;;;;;;;4883467;29;20101;-76
2021/06/18 13:16:11;;;;;;;3.78;2.53;;;33.50;47.90;;;;;;4883823;29;20056;-76
2021/06/18 13:18:55;;;;;;;4.13;2.65;;;33.60;48.80;;;;;;4884767;29;20104;-76
2021/06/18 13:21:24;;;;;;;3.38;2.28;;;33.60;48.60;;;;;;4884182;29;20579;-78
2021/06/18 13:23:52;;;;;;;3.55;2.30;;;33.70;48.80;;;;;;4882436;29;20081;-77
2021/06/18 13:26:21;;;;;;;4.22;2.17;;;33.80;48.60;;;;;;4880385;29;20088;-75
2021/06/18 13:28:50;;;;;;;3.20;2.25;;;33.90;48.70;;;;;;4880846;29;20202;-78
2021/06/18 13:31:21;;;;;;;6.07;2.60;;;34.00;48.30;;;;;;4880877;29;20069;-76
2021/06/18 13:33:52;;;;;;;4.38;2.67;;;34.10;47.50;;;;;;4881027;29;20084;-77
2021/06/18 13:36:28;;;;;;;4.68;2.53;;;34.30;71.50;;;;;;4880527;29;20053;-75
2021/06/18 13:38:55;;;;;;;6.53;3.00;;;33.80;62.10;;;;;;4880953;29;20057;-79
2021/06/18 13:41:36;;;;;;;4.68;2.78;;;34.50;45.70;;;;;;4880600;29;20057;-76
2021/06/18 13:44:04;;;;;;;3.83;2.47;;;34.50;46.30;;;;;;4880611;29;20455;-79
2021/06/18 13:46:31;;;;;;;6.32;2.50;;;34.60;46.10;;;;;;4880245;29;20053;-76
2021/06/18 13:48:59;;;;;;;4.90;2.80;;;34.80;45.90;;;;;;4880691;29;20136;-76
2021/06/18 13:51:26;;;;;;;3.72;2.53;;;34.90;45.90;;;;;;4880949;29;20132;-75
2021/06/18 13:53:54;;;;;;;4.28;2.85;;;35.10;45.90;;;;;;4880821;29;20057;-76
2021/06/18 13:56:21;;;;;;;5.03;2.58;;;35.20;45.40;;;;;;4880636;29;20384;-77
2021/06/18 13:58:50;;;;;;;3.95;2.55;;;35.40;45.20;;;;;;4880602;29;20061;-76
2021/06/18 14:01:17;;;;;;;4.50;2.45;;;35.50;45.20;;;;;;4877420;29;20137;-78
2021/06/18 14:03:45;;;;;;;4.13;2.30;;;;;;;;;;4869114;29;20456;-77
2021/06/18 14:06:13;;;;;;;5.65;2.55;;;;;;;;;;4869640;29;20085;-78
2021/06/18 14:08:41;;;;;;;5.18;2.50;;;;;;;;;;4878057;29;20128;-75
2021/06/18 14:11:12;;;;;;;6.18;3.08;;;;;;;;;;4861704;29;20105;-75
2021/06/18 14:13:39;;;;;;;5.25;2.85;;;;;;;;;;4879630;29;20059;-74
2021/06/18 14:16:08;;;;;;;4.50;2.60;;;;;;;;;;4876862;29;20084;-75
2021/06/18 14:18:36;;;;;;;6.95;3.70;;;;;;;;;;4869063;29;20106;-78
2021/06/18 14:21:04;;;;;;;6.82;3.40;;;;;;;;;;4868462;29;20131;-79
2021/06/18 14:23:31;;;;;;;4.38;3.20;;;;;;;;;;4868778;29;20104;-76
2021/06/18 14:26:00;;;;;;;5.68;3.10;;;;;;;;;;4866615;29;20411;-74
2021/06/18 14:28:28;;;;;;;4.10;2.70;;;;;;;;;;4865817;29;20132;-76
2021/06/18 14:30:55;;;;;;;4.43;2.20;;;;;;;;;;4870536;29;20113;-79
2021/06/18 14:33:24;;;;;;;4.10;2.25;;;;;;;;;;4873195;29;20136;-79
2021/06/18 14:35:51;;;;;;;6.50;2.75;;;;;;;;;;4867593;29;20136;-76
2021/06/18 14:38:19;;;;;;;4.07;2.20;;;;;;;;;;4866963;29;20210;-77
2021/06/18 14:40:48;;;;;;;4.78;2.20;;;;;;;;;;4863545;29;20049;-77
2021/06/18 14:43:15;;;;;;;3.55;2.20;;;;;;;;;;4867194;29;20582;-79
2021/06/18 14:45:43;;;;;;;4.05;1.80;;;;;;;;;;4864120;29;20049;-77
2021/06/18 14:48:10;;;;;;;3.45;1.80;;;;;;;;;;4868133;29;20148;-78
2021/06/18 14:50:39;;;;;;;3.72;2.03;;;;;;;;;;4868712;29;20136;-76
2021/06/18 14:53:06;;;;;;;4.55;2.30;;;;;;;;;;4861572;29;20083;-78
2021/06/18 14:55:34;;;;;;;3.75;2.13;;;;;;;;;;4865297;29;20092;-76
2021/06/18 14:58:01;;;;;;;3.10;1.98;;;;;;;;;;4867724;29;20060;-78
2021/06/18 15:00:28;;;;;;;4.85;2.30;;;;;;;;;;4861963;29;20053;-78
2021/06/18 15:02:56;;;;;;;4.47;2.22;;;;;;;;;;4863519;29;20138;-76
2021/06/18 15:05:23;;;;;;;4.07;2.35;;;;;;;;;;4865316;29;20056;-77
2021/06/18 15:07:52;;;;;;;4.57;2.00;;;;;;;;;;4873537;29;20167;-78
2021/06/18 15:10:20;;;;;;;5.32;2.40;;;;;;;;;;4869464;29;20467;-78
2021/06/18 15:12:47;;;;;;;4.97;2.50;;;;;;;;;;4876955;29;20081;-78
2021/06/18 15:15:15;;;;;;;3.80;2.20;;;;;;;;;;4867319;29;20132;-77
2021/06/18 15:17:42;;;;;;;3.53;2.03;;;;;;;;;;4872681;29;20128;-80
2021/06/18 15:20:10;;;;;;;4.63;2.30;;;;;;;;;;4871187;29;20045;-76
2021/06/18 15:22:38;;;;;;;3.95;1.88;;;;;;;;;;4864063;29;20160;-78
2021/06/18 15:25:08;;;;;;;3.45;2.00;;;;;;;;;;4868232;29;20072;-78
2021/06/18 15:27:37;;;;;;;4.10;1.80;;;;;;;;;;4871630;29;20084;-77
2021/06/18 15:30:06;;;;;;;5.03;1.80;;;;;;;;;;4875308;29;20068;-77
2021/06/18 15:32:33;;;;;;;3.40;1.75;;;;;;;;;;4872693;29;20056;-75
2021/06/18 15:35:02;;;;;;;3.90;1.88;;;;;;;;;;4872126;29;20338;-76
2021/06/18 15:37:30;;;;;;;3.83;1.80;;;;;;;;;;4878596;29;20495;-78
2021/06/18 15:39:59;;;;;;;4.35;1.98;;;;;;;;;;4878994;29;20089;-77
2021/06/18 15:42:28;;;;;;;3.83;1.70;;;;;;;;;;4879558;29;20080;-76
2021/06/18 15:44:56;;;;;;;3.53;1.80;;;;;;;;;;4876939;29;20080;-77
2021/06/18 15:47:24;;;;;;;3.92;1.83;;;;;;;;;;4869056;29;20052;-77
2021/06/18 15:49:51;;;;;;;4.05;1.80;;;;;;;;;;4867914;29;20141;-77
2021/06/18 15:52:19;;;;;;;3.35;1.67;;;;;;;;;;4874831;29;20631;-77
2021/06/18 15:54:46;;;;;;;3.45;1.80;;;;;;;;;;4881043;29;20072;-78
2021/06/18 15:57:13;;;;;;;3.50;1.60;;;;;;;;;;4878982;29;20124;-76
2021/06/18 15:59:42;;;;;;;4.15;1.70;;;;;;;;;;4861604;29;20379;-76
2021/06/18 16:02:09;;;;;;;3.75;1.77;;;;;;;;;;4874573;29;20178;-77
2021/06/18 16:04:37;;;;;;;3.67;1.98;;;;;;;;;;4872294;29;20092;-76
2021/06/18 16:07:04;;;;;;;5.85;2.40;;;;;;;;;;4870267;29;20164;-76
2021/06/18 16:09:32;;;;;;;4.10;2.00;;;;;;;;;;4867027;29;20072;-78
2021/06/18 16:11:59;;;;;;;3.60;1.88;;;;;;;;;;4861891;29;20094;-77
2021/06/18 16:14:27;;;;;;;4.57;1.90;;;;;;;;;;4868632;29;20110;-79
2021/06/18 16:16:59;;;;;;;3.40;1.65;;;;;;;;;;4870640;29;20057;-77
2021/06/18 16:19:28;;;;;;;3.88;2.00;;;;;;;;;;4867577;29;20064;-77
2021/06/18 16:21:56;;;;;;;3.50;1.88;;;;;;;;;;4872005;29;20053;-78
2021/06/18 16:24:23;;;;;;;4.55;1.58;;;;;;;;;;4867533;29;20127;-77
2021/06/18 16:26:51;;;;;;;4.03;1.73;;;;;;;;;;4867252;29;20041;-76
2021/06/18 16:29:18;;;;;;;4.28;1.92;;;;;;;;;;4867250;29;20503;-77
2021/06/18 16:31:45;;;;;;;3.38;1.67;;;;;;;;;;4867041;29;20136;-77
2021/06/18 16:34:14;;;;;;;4.63;1.83;;;;;;;;;;4864491;29;20136;-77
2021/06/18 16:36:42;;;;;;;3.17;1.55;;;;;;;;;;4869901;29;20152;-77
2021/06/18 16:39:09;;;;;;;4.70;1.75;;;;;;;;;;4872021;29;20140;-76
2021/06/18 16:41:36;;;;;;;4.93;1.48;;;;;;;;;;4872126;29;20139;-76
2021/06/18 16:44:04;;;;;;;3.55;1.58;;;;;;;;;;4874541;29;20862;-78
2021/06/18 16:46:31;;;;;;;4.32;1.70;;;;;;;;;;4870143;29;20612;-76
2021/06/18 16:48:59;;;;;;;3.35;1.50;;;;;;;;;;4875335;29;20499;-77
2021/06/18 16:51:28;;;;;;;5.45;2.53;;;;;;;;;;4868567;29;20045;-77
2021/06/18 16:53:55;;;;;;;5.75;3.65;;;;;;;;;;4875653;29;20140;-78
2021/06/18 16:56:23;;;;;;;7.28;3.95;;;;;;;;;;4874963;29;20060;-77
2021/06/18 16:58:51;;;;;;;5.30;2.88;;;;;;;;;;4871842;29;20052;-77
2021/06/18 17:01:19;;;;;;;5.20;2.53;;;;;;;;;;4868170;29;20086;-78
2021/06/18 17:03:46;;;;;;;5.10;2.47;;;;;;;;;;4876841;29;20097;-78
2021/06/18 17:06:14;;;;;;;5.97;2.60;;;;;;;;;;4874674;29;20101;-77
2021/06/18 17:08:44;;;;;;;4.40;2.03;;;;;;;;;;4870948;29;20578;-77
2021/06/18 17:11:15;;;;;;;4.40;2.30;;;;;;;;;;4872237;29;20123;-77
2021/06/18 17:14:12;;;;;;;4.50;2.15;;;;;;;;;;4876179;29;20565;-76
2021/06/18 17:16:39;;;;;;;4.50;1.95;;;;;;;;;;4875001;29;20072;-78
2021/06/18 17:19:06;;;;;;;4.43;2.10;;;;;;;;;;4868415;29;20477;-78
2021/06/18 17:21:35;;;;;;;4.88;2.33;;;;;;;;;;4869028;29;20087;-77
2021/06/18 17:24:05;;;;;;;5.00;2.10;;;;;;;;;;4863368;29;20053;-76
2021/06/18 17:26:32;;;;;;;4.07;2.08;;;;;;;;;;4871392;29;20049;-77
2021/06/18 17:29:00;;;;;;;7.22;2.35;;;;;;;;;;4865665;29;20407;-76
2021/06/18 17:31:27;;;;;;;3.90;2.00;;;;;;;;;;4866346;29;20108;-75
2021/06/18 17:33:55;;;;;;;4.93;2.22;;;;;;;;;;4860178;29;20049;-79
2021/06/18 17:36:23;;;;;;;3.97;2.28;;;;;;;;;;4873564;29;20762;-75
2021/06/18 17:38:50;;;;;;;6.63;2.20;;;;;;;;;;4867472;29;20144;-76
2021/06/18 17:41:19;;;;;;;4.28;2.50;;;;;;;;;;4865588;29;20132;-77
2021/06/18 17:43:47;;;;;;;6.65;2.75;;;;;;;;;;4868390;29;20448;-78
2021/06/18 17:46:14;;;;;;;5.32;2.20;;;;;;;;;;4869046;29;20092;-76
2021/06/18 17:48:42;;;;;;;5.22;2.13;;;33.50;47.80;;;;;;4867409;29;20092;-75
2021/06/18 17:51:10;;;;;;;6.05;2.25;;;33.50;48.30;;;;;;4865156;29;20670;-79
2021/06/18 17:53:37;;;;;;;4.45;2.10;;;33.30;48.20;;;;;;4864837;29;20136;-77
2021/06/18 17:56:05;;;;;;;4.47;2.20;;;33.20;48.20;;;;;;4866728;29;20063;-77
2021/06/18 17:58:34;;;;;;;5.95;2.20;;;33.10;48.00;;;;;;4861066;29;20048;-79
2021/06/18 18:01:01;;;;;;;4.97;2.60;;;33.00;48.60;;;;;;4869570;29;20057;-78
2021/06/18 18:03:29;;;;;;;4.68;2.30;;;32.80;49.30;;;;;;4874942;29;20148;-79
2021/06/18 18:05:56;;;;;;;3.97;2.17;;;32.70;49.60;;;;;;4874229;29;20052;-78
2021/06/18 18:08:24;;;;;;;7.78;2.80;;;32.50;49.70;;;;;;4875310;29;20057;-77
2021/06/18 18:10:51;;;;;;;4.53;2.15;;;32.30;50.60;;;;;;4871307;29;20049;-79
2021/06/18 18:13:18;;;;;;;4.25;2.08;;;32.20;52.10;;;;;;4867273;29;20076;-86
2021/06/18 18:15:47;;;;;;;7.55;2.50;;;32.10;52.80;;;;;;4868902;29;20057;-85
2021/06/18 18:18:15;;;;;;;4.72;2.47;;;32.00;53.40;;;;;;4882314;29;20059;-85
2021/06/18 18:20:43;;;;;;;4.43;2.13;;;32.00;53.90;;;;;;4867271;29;20551;-85
2021/06/18 18:23:11;;;;;;;4.50;2.13;;;31.90;53.60;;;;;;4863187;29;20053;-80
2021/06/18 18:25:38;;;;;;;5.10;2.20;;;32.00;53.60;;;;;;4865421;29;20081;-78
2021/06/18 18:28:06;;;;;;;5.45;2.38;;;31.90;53.20;;;;;;4864634;29;20121;-81
2021/06/18 18:30:33;;;;;;;5.28;2.60;;;31.90;52.90;;;;;;4861203;29;20054;-79
2021/06/18 18:33:02;;;;;;;6.38;2.80;;;31.90;52.40;;;;;;4865557;29;20654;-80